Time;durP1;ratioP1;P1;durP2;ratioP2;P2;SDS_P1;SDS_P2;PMS_P1;PMS_P2;Temp;Humidity;BMP_temperature;BMP_pressure;BME280_temperature;BME280_humidity;BME280_pressure;Samples;Min_cycle;Max_cycle;Signal;HPM_P1;HPM_P2
2022/06/20 00:03:46;;;;;;;11.50;2.25;;;;;;;10.97;nan;98438.66;10079695;29;20466;-70
2022/06/20 00:08:51;;;;;;;10.32;1.80;;;;;;;10.96;nan;98436.94;10078424;29;20060;-71
2022/06/20 00:13:54;;;;;;;7.13;1.60;;;;;;;10.95;nan;98440.47;10069900;29;20049;-70
2022/06/20 00:18:56;;;;;;;12.13;2.00;;;;;;;10.97;nan;98446.50;10076233;29;20063;-71
2022/06/20 00:23:57;;;;;;;6.75;2.03;;;;;;;10.96;nan;98447.44;10075007;29;20044;-70
2022/06/20 00:29:01;;;;;;;11.38;2.10;;;;;;;11.02;nan;98478.72;10089031;29;20148;-71
2022/06/20 00:34:03;;;;;;;10.02;2.33;;;;;;;11.01;nan;98471.75;10068316;29;20719;-70
2022/06/20 00:39:05;;;;;;;11.05;2.60;;;;;;;10.94;nan;98438.72;10086892;29;20048;-71
2022/06/20 00:44:13;;;;;;;10.07;2.33;;;;;;;10.92;nan;98440.53;10087655;29;20444;-71
2022/06/20 00:49:19;;;;;;;8.88;1.98;;;;;;;10.90;nan;98437.06;10088388;29;20108;-71
2022/06/20 00:54:34;;;;;;;6.40;2.03;;;;;;;10.83;nan;98409.31;10096960;29;20055;-71
2022/06/20 00:59:44;;;;;;;5.68;2.17;;;;;;;10.79;nan;98398.91;10086822;29;20057;-71
2022/06/20 01:04:53;;;;;;;8.65;1.85;;;;;;;10.78;nan;98398.94;10087825;29;20049;-71
2022/06/20 01:09:58;;;;;;;7.40;1.80;;;;;;;10.77;nan;98395.44;10086831;29;20045;-71
2022/06/20 01:14:59;;;;;;;7.78;2.08;;;;;;;10.82;nan;98418.06;10088305;29;20041;-72
2022/06/20 01:20:06;;;;;;;11.68;2.08;;;;;;;10.73;nan;98383.34;10086305;29;20053;-71
2022/06/20 01:25:36;;;;;;;9.18;2.17;;;;;;;10.63;nan;98350.41;10087985;29;20638;-70
2022/06/20 01:30:41;;;;;;;8.00;1.98;;;;;;;10.54;nan;98319.22;10085853;29;20055;-70
2022/06/20 01:46:28;;;;;;;7.53;2.40;;;;;;;10.33;nan;98242.00;10079973;29;20703;-71
2022/06/20 01:51:43;;;;;;;10.90;2.03;;;;;;;10.29;nan;98228.16;10083648;29;20102;-71
2022/06/20 01:56:47;;;;;;;14.07;2.35;;;;;;;10.29;nan;98230.78;10088577;29;20095;-70
2022/06/20 02:01:50;;;;;;;6.85;2.17;;;;;;;10.26;nan;98220.38;10084058;29;20162;-70
2022/06/20 02:06:54;;;;;;;13.02;2.78;;;;;;;10.22;nan;98208.25;10084716;29;20628;-70
2022/06/20 02:11:55;;;;;;;12.68;3.10;;;;;;;10.20;nan;98205.69;10084620;29;20048;-71
2022/06/20 02:17:03;;;;;;;8.02;2.75;;;;;;;10.21;nan;98212.66;10084515;29;20052;-70
2022/06/20 02:22:07;;;;;;;6.65;2.40;;;;;;;10.23;nan;98220.47;10083374;29;20049;-70
2022/06/20 02:27:30;;;;;;;9.85;3.10;;;;;;;10.21;nan;98217.03;10095013;29;20052;-70
2022/06/20 02:32:37;;;;;;;14.20;2.88;;;;;;;10.16;nan;98203.19;10078067;29;20049;-70
2022/06/20 02:37:39;;;;;;;9.07;3.08;;;;;;;10.13;nan;98187.56;10081951;29;20049;-70
2022/06/20 02:42:53;;;;;;;8.13;2.50;;;;;;;10.09;nan;98185.00;10083524;29;20080;-70
2022/06/20 02:47:59;;;;;;;13.68;3.30;;;;;;;10.03;nan;98156.41;10078328;29;20080;-71
2022/06/20 02:53:16;;;;;;;7.28;2.80;;;;;;;10.04;nan;98162.47;10077553;29;20414;-70
2022/06/20 02:58:22;;;;;;;14.68;3.53;;;;;;;10.12;nan;98193.66;10086439;29;20125;-69
2022/06/20 03:03:30;;;;;;;9.63;3.47;;;;;;;10.18;nan;98227.56;10074819;29;20088;-70
2022/06/20 03:08:32;;;;;;;8.18;3.38;;;;;;;10.15;nan;98214.53;10082262;29;20071;-70
2022/06/20 03:13:37;;;;;;;10.57;3.20;;;;;;;10.17;nan;98224.06;10082298;29;20064;-70
2022/06/20 03:18:44;;;;;;;11.82;3.67;;;;;;;10.19;nan;98245.84;10081680;29;20052;-69
2022/06/20 03:23:46;;;;;;;13.32;3.42;;;;;;;10.23;nan;98257.91;10088819;29;20040;-70
2022/06/20 03:28:47;;;;;;;10.07;3.13;;;;;;;10.32;nan;98303.94;10085023;29;20076;-70
2022/06/20 03:33:49;;;;;;;14.25;3.90;;;;;;;10.40;nan;98338.69;10081326;29;20048;-71
2022/06/20 03:38:51;;;;;;;10.18;3.58;;;;;;;10.49;nan;98376.00;10081732;29;20465;-70
2022/06/20 03:44:01;;;;;;;8.93;3.72;;;;;;;10.56;nan;98401.16;10081632;29;20053;-70
2022/06/20 03:49:26;;;;;;;16.88;4.07;;;;;;;10.64;nan;98435.00;10081779;29;20055;-70
2022/06/20 03:54:42;;;;;;;8.57;3.30;;;;;;;10.67;nan;98456.72;10075267;29;20523;-69
2022/06/20 04:00:11;;;;;;;12.07;3.25;;;;;;;10.81;nan;98518.41;10087946;29;20535;-71
2022/06/20 04:05:23;;;;;;;13.07;3.40;;;;;;;10.89;nan;98556.66;10076252;29;20813;-70
2022/06/20 04:15:57;;;;;;;10.35;2.90;;;;;;;10.91;nan;98567.09;10091089;29;20052;-71
2022/06/20 04:21:11;;;;;;;8.73;3.30;;;;;;;10.95;nan;98587.94;10096131;29;20071;-70
2022/06/20 04:26:19;;;;;;;14.52;4.35;;;;;;;11.01;nan;98610.53;10096730;29;20049;-71
2022/06/20 04:31:36;;;;;;;12.70;3.88;;;;;;;11.07;nan;98639.22;10096793;29;20063;-70
2022/06/20 04:36:54;;;;;;;14.93;3.50;;;;;;;11.08;nan;98651.44;10097316;29;20654;-71
2022/06/20 04:42:10;;;;;;;10.70;3.25;;;;;;;11.08;nan;98647.94;10082860;29;20053;-70
2022/06/20 04:47:30;;;;;;;9.50;3.45;;;;;;;11.16;nan;98695.81;10076483;29;20058;-71
2022/06/20 04:52:32;;;;;;;11.97;3.10;;;;;;;11.28;nan;98744.50;10072117;29;20068;-70
2022/06/20 04:57:34;;;;;;;12.85;3.40;;;;;;;11.32;nan;98761.88;10082549;29;20049;-71
2022/06/20 05:02:36;;;;;;;10.93;3.50;;;;;;;11.44;nan;98816.69;10085586;29;20053;-71
2022/06/20 05:07:39;;;;;;;11.13;3.40;;;;;;;11.52;nan;98847.16;10085443;29;20051;-70
2022/06/20 05:12:43;;;;;;;13.13;3.65;;;;;;;11.64;nan;98896.72;10079333;29;20513;-71
2022/06/20 05:17:47;;;;;;;9.82;3.50;;;;;;;11.70;nan;98933.31;10082833;29;20693;-71
2022/06/20 05:22:56;;;;;;;14.57;4.03;;;;;;;11.81;nan;98986.47;10075925;29;20394;-71
2022/06/20 05:28:02;;;;;;;12.02;3.75;;;;;;;11.93;nan;99029.13;10079271;29;20072;-70
2022/06/20 05:33:24;;;;;;;14.95;4.95;;;;;;;12.10;nan;99103.19;10057621;29;20065;-71
2022/06/20 05:38:28;;;;;;;10.80;4.28;;;;;;;12.47;nan;99260.03;10075917;29;20433;-70
2022/06/20 05:43:31;;;;;;;15.25;4.13;;;;;;;13.01;nan;99489.53;10080196;29;20052;-69
2022/06/20 05:48:40;;;;;;;13.85;3.10;;;;;;;13.61;nan;99749.06;10077865;29;20049;-69
2022/06/20 05:53:56;;;;;;;12.38;3.20;;;;;;;13.59;nan;99741.22;10084650;29;20044;-69
2022/06/20 05:59:00;;;;;;;8.38;2.58;;;;;;;13.40;nan;99660.81;10086136;29;20684;-69
2022/06/20 06:04:23;;;;;;;12.27;3.00;;;;;;;13.33;nan;99635.44;10074564;29;20075;-69
2022/06/20 06:09:46;;;;;;;11.15;2.65;;;;;;;13.48;nan;99706.28;10080513;29;20041;-70
2022/06/20 06:14:54;;;;;;;6.72;2.25;;;;;;;13.59;nan;99741.22;10076445;29;20771;-70
2022/06/20 06:19:58;;;;;;;5.97;1.83;;;;;;;13.87;nan;99867.19;10079239;29;20128;-71
2022/06/20 06:25:28;;;;;;;7.07;2.13;;;;;;;14.43;nan;100108.81;10086120;29;20045;-70
2022/06/20 06:31:00;;;;;;;5.87;1.90;;;;;;;14.73;nan;100239.41;10072482;29;20057;-72
2022/06/20 06:36:12;;;;;;;6.75;1.80;;;;;;;14.94;nan;100333.25;10072307;29;20083;-71
2022/06/20 06:41:37;;;;;;;6.38;1.98;;;;;;;15.24;nan;100463.13;10080130;29;20147;-71
2022/06/20 06:46:42;;;;;;;7.22;1.67;;;;;;;15.57;nan;100593.03;10074784;29;20057;-71
2022/06/20 06:52:02;;;;;;;4.25;1.40;;;;;;;16.31;nan;100925.38;10079579;29;20124;-71
2022/06/20 06:57:27;;;;;;;12.07;1.80;;;;;;;16.16;nan;100854.13;10082826;29;20076;-71
2022/06/20 07:02:35;;;;;;;11.23;1.73;;;;;;;16.18;nan;100870.84;10075720;29;20081;-73
2022/06/20 07:07:43;;;;;;;9.48;1.83;;;;;;;16.20;nan;100872.59;10072137;29;20056;-72
2022/06/20 07:12:49;;;;;;;10.13;2.53;;;;;;;15.95;nan;100757.41;10074423;29;20053;-71
2022/06/20 07:17:55;;;;;;;8.75;1.98;;;;;;;17.20;nan;101304.13;10081894;29;20532;-72
2022/06/20 07:23:00;;;;;;;12.98;2.40;;;;;;;17.92;nan;101618.31;10070808;29;20080;-72
2022/06/20 07:28:35;;;;;;;6.00;1.80;;;;;;;18.51;nan;101885.19;10074451;29;20045;-71
2022/06/20 07:33:49;;;;;;;6.20;1.55;;;;;;;18.85;nan;102027.63;10075255;29;20747;-71
2022/06/20 07:39:03;;;;;;;8.75;2.58;;;;;;;19.19;nan;102165.78;10078361;29;20051;-71
2022/06/20 07:44:14;;;;;;;7.25;1.70;;;;;;;19.46;nan;102287.16;10072721;29;20049;-72
2022/06/20 07:49:32;;;;;;;5.68;1.63;;;;;;;18.95;nan;102052.47;10073281;29;20085;-71
2022/06/20 07:55:03;;;;;;;7.03;1.67;;;;;;;19.24;nan;102164.03;10088843;29;20134;-72
2022/06/20 08:00:07;;;;;;;4.93;1.85;;;;;;;18.44;nan;101801.22;10073748;29;20689;-70
2022/06/20 08:05:16;;;;;;;8.45;2.00;;;;;;;18.55;nan;101841.00;10068525;29;20816;-71
2022/06/20 08:10:29;;;;;;;6.80;1.83;;;;;;;18.01;nan;101594.44;10062089;29;20372;-71
2022/06/20 08:15:42;;;;;;;9.60;2.42;;;;;;;17.83;nan;101514.09;10081447;29;20052;-71
2022/06/20 08:20:49;;;;;;;8.25;1.88;;;;;;;19.11;nan;102067.53;10069738;29;20044;-72
2022/06/20 08:25:56;;;;;;;7.07;2.15;;;;;;;19.82;nan;102367.06;10063707;29;20045;-71
2022/06/20 08:31:40;;;;;;;8.07;2.05;;;;;;;20.30;nan;102581.72;10080258;29;20076;-71
2022/06/20 08:36:56;;;;;;;6.53;1.83;;;;;;;19.34;nan;102138.41;10056109;29;20528;-72
2022/06/20 08:42:25;;;;;;;8.35;2.30;;;;;;;18.53;nan;101772.03;10067921;29;20073;-71
2022/06/20 08:47:46;;;;;;;9.30;2.17;;;;;;;17.28;nan;101223.84;10052259;29;20073;-70
2022/06/20 08:53:18;;;;;;;8.80;2.50;;;;;;;16.50;nan;100872.41;10044527;29;20106;-72
2022/06/20 08:58:28;;;;;;;10.25;2.50;;;;;;;16.40;nan;100827.56;10065308;29;20042;-70
2022/06/20 09:03:52;;;;;;;11.27;2.60;;;;;;;16.60;nan;100901.47;10072657;29;20784;-71
2022/06/20 09:09:14;;;;;;;13.63;2.67;;;;;;;17.03;nan;101088.13;10051554;29;20061;-71
2022/06/20 09:14:40;;;;;;;10.25;1.80;;;;;;;17.46;nan;101265.25;10081000;29;20053;-71
2022/06/20 09:19:56;;;;;;;6.05;1.92;;;;;;;19.10;nan;101964.88;10082362;29;20053;-71
2022/06/20 09:24:57;;;;;;;11.30;2.13;;;;;;;19.88;nan;102306.81;10085598;29;20072;-71
2022/06/20 09:30:25;;;;;;;10.40;2.03;;;;;;;20.30;nan;102483.31;10085323;29;20064;-72
2022/06/20 09:35:58;;;;;;;10.23;2.08;;;;;;;20.55;nan;102580.94;10080854;29;20053;-72
2022/06/20 09:41:04;;;;;;;7.40;2.22;;;;;;;20.53;nan;102570.31;10078278;29;20889;-72
2022/06/20 09:46:18;;;;;;;11.17;2.10;;;;;;;19.59;nan;102139.28;10079715;29;20163;-73
2022/06/20 09:51:25;;;;;;;9.05;1.73;;;;;;;18.75;nan;101757.88;10079027;29;20075;-71
2022/06/20 09:57:08;;;;;;;7.82;1.75;;;;;;;18.83;nan;101785.28;10085035;29;20060;-71
2022/06/20 10:02:16;;;;;;;11.02;2.45;;;;;;;20.31;nan;102428.34;9997499;29;20058;-72
2022/06/20 10:07:49;;;;;;;6.80;1.63;;;;;;;21.46;nan;102924.97;10056963;29;20518;-71
2022/06/20 10:13:17;;;;;;;7.57;1.60;;;;;;;20.85;nan;102638.75;10077585;29;20441;-70
2022/06/20 10:18:36;;;;;;;5.43;1.30;;;;;;;20.00;nan;102251.91;10072442;29;20053;-72
2022/06/20 10:23:50;;;;;;;5.07;1.50;;;;;;;20.20;nan;102329.03;10083041;29;20040;-71
2022/06/20 10:29:12;;;;;;;3.97;1.10;;;;;;;20.22;nan;102321.94;10088833;29;20036;-70
2022/06/20 10:34:31;;;;;;;6.47;1.27;;;;;;;21.02;nan;102669.00;10074793;29;20057;-71
2022/06/20 10:39:42;;;;;;;5.43;1.23;;;;;;;21.30;nan;102783.66;10069266;29;20420;-71
2022/06/20 10:44:56;;;;;;;5.00;1.30;;;;;;;21.79;nan;102982.91;10081148;29;20049;-71
2022/06/20 10:50:23;;;;;;;7.65;1.25;;;;;;;21.95;nan;103039.91;10080642;29;20041;-71
2022/06/20 10:55:37;;;;;;;5.70;1.40;;;;;;;21.89;nan;102997.22;10081410;29;20052;-71
2022/06/20 11:00:45;;;;;;;4.60;1.45;;;;;;;21.51;nan;102817.53;10082178;29;20068;-72
2022/06/20 11:05:57;;;;;;;5.55;1.33;;;;;;;20.38;nan;102304.22;10081296;29;20105;-71
2022/06/20 11:11:19;;;;;;;5.78;1.35;;;;;;;19.55;nan;101933.00;10081459;29;20045;-71
2022/06/20 11:16:48;;;;;;;5.72;1.05;;;;;;;19.39;nan;101860.41;10080773;29;20064;-72
2022/06/20 11:22:05;;;;;;;7.90;1.27;;;;;;;19.48;nan;101881.63;10072274;29;20053;-73
2022/06/20 11:27:26;;;;;;;5.93;1.10;;;;;;;20.03;nan;102105.69;10067300;29;20136;-70
2022/06/20 11:32:42;;;;;;;1.90;0.88;;;;;;;21.04;nan;102540.31;10074612;29;20049;-70
2022/06/20 11:38:11;;;;;;;5.38;1.10;;;;;;;21.39;nan;102685.97;10072919;29;20588;-71
2022/06/20 11:43:50;;;;;;;7.72;1.13;;;;;;;20.07;nan;102094.13;10078718;29;20069;-71
2022/06/20 11:49:05;;;;;;;3.87;1.20;;;;;;;19.14;nan;101692.34;10071118;29;20048;-72
2022/06/20 11:54:34;;;;;;;11.30;1.25;;;;;;;19.17;nan;101695.88;10074632;29;20055;-71
2022/06/20 11:59:48;;;;;;;5.53;0.90;;;;;;;19.85;nan;101977.22;10079300;29;20767;-72
2022/06/20 12:04:58;;;;;;;6.57;1.25;;;;;;;19.56;nan;101847.97;10072709;29;20472;-71
2022/06/20 12:10:19;;;;;;;;;;;;;;;19.26;nan;101716.19;10077628;29;20037;-74
2022/06/20 12:15:42;;;;;;;2.45;1.02;;;;;;;18.97;nan;101583.59;10078318;29;19983;-73
2022/06/20 12:26:20;;;;;;;7.97;1.25;;;;;;;19.80;nan;101925.84;10070399;29;20140;-71
2022/06/20 12:31:25;;;;;;;2.30;1.00;;;;;;;19.39;nan;101744.44;10075913;29;20630;-67
2022/06/20 12:36:34;;;;;;;4.10;1.08;;;;;;;18.80;nan;101488.16;10080177;29;20041;-68
2022/06/20 12:41:40;;;;;;;6.95;1.27;;;;;;;18.57;nan;101376.88;10083441;29;20049;-68
2022/06/20 12:47:07;;;;;;;5.97;1.35;;;;;;;18.91;nan;101518.16;10075908;29;20063;-68
2022/06/20 12:52:20;;;;;;;3.95;1.00;;;;;;;19.88;nan;101918.75;10083010;29;20048;-67
2022/06/20 12:57:41;;;;;;;3.70;1.10;;;;;;;19.83;nan;101893.97;10067269;29;20049;-69
2022/06/20 13:03:17;;;;;;;4.22;1.10;;;;;;;19.24;nan;101647.16;10079068;29;20673;-68
2022/06/20 13:08:58;;;;;;;3.38;1.27;;;;;;;19.32;nan;101667.47;10077210;29;20056;-67
2022/06/20 13:14:19;;;;;;;6.88;1.40;;;;;;;19.10;nan;101572.03;10083122;29;20060;-72
2022/06/20 13:19:50;;;;;;;10.07;1.50;;;;;;;19.45;nan;101703.69;10076843;29;20037;-74
2022/06/20 13:24:57;;;;;;;4.57;1.20;;;;;;;20.05;nan;101958.56;10076070;29;20041;-72
2022/06/20 13:30:25;;;;;;;7.72;1.20;;;;;;;20.32;nan;102065.72;10087925;29;20052;-70
2022/06/20 13:35:30;;;;;;;4.38;1.30;;;;;;;20.72;nan;102222.63;10063508;29;20148;-72
2022/06/20 13:40:40;;;;;;;2.80;1.00;;;;;;;21.09;nan;102376.06;10078184;29;20050;-72
2022/06/20 13:45:51;;;;;;;5.03;1.15;;;;;;;20.20;nan;101993.97;10083896;29;20056;-73
2022/06/20 13:51:08;;;;;;;3.67;1.00;;;;;;;19.02;nan;101496.88;10084013;29;20116;-72
2022/06/20 13:56:32;;;;;;;3.90;1.00;;;;;;;19.12;nan;101533.06;10096351;29;20081;-72
2022/06/20 14:01:41;;;;;;;3.05;1.08;;;;;;;19.60;nan;101722.19;10071232;29;20060;-72
2022/06/20 14:06:52;;;;;;;3.23;1.10;;;;;;;19.24;nan;101570.16;10083667;29;20049;-71
2022/06/20 14:12:02;;;;;;;5.07;1.40;;;;;;;19.34;nan;101599.31;10083830;29;20489;-70
2022/06/20 14:17:26;;;;;;;5.28;1.27;;;;;;;19.27;nan;101571.03;10076888;29;20065;-69
2022/06/20 14:22:35;;;;;;;4.55;1.30;;;;;;;19.18;nan;101524.19;10073714;29;20050;-70
2022/06/20 14:27:37;;;;;;;1.80;0.95;;;;;;;19.09;nan;101485.31;10089610;29;20095;-70
2022/06/20 14:33:10;;;;;;;4.10;1.15;;;;;;;19.58;nan;101680.63;10082037;29;20060;-69
2022/06/20 14:38:27;;;;;;;3.65;1.17;;;;;;;19.25;nan;101545.38;10075895;29;20053;-70
2022/06/20 14:43:41;;;;;;;11.15;1.20;;;;;;;19.14;nan;101499.47;10081492;29;20068;-70
2022/06/20 14:48:52;;;;;;;4.97;1.70;;;;;;;18.83;nan;101360.78;10075542;29;20465;-70
2022/06/20 14:54:04;;;;;;;5.85;1.58;;;;;;;18.62;nan;101264.56;10092823;29;20048;-69
2022/06/20 14:59:26;;;;;;;3.28;1.30;;;;;;;18.04;nan;101022.09;10084144;29;20636;-70
2022/06/20 15:04:42;;;;;;;3.33;1.20;;;;;;;17.50;nan;100810.75;10073299;29;20419;-69
2022/06/20 15:09:50;;;;;;;3.20;1.40;;;;;;;17.33;nan;100742.16;10083059;29;20068;-69
2022/06/20 15:15:04;;;;;;;3.75;1.30;;;;;;;17.93;nan;100977.19;10082503;29;20428;-70
2022/06/20 15:20:17;;;;;;;4.72;1.30;;;;;;;18.07;nan;101037.97;10081458;29;20108;-73
2022/06/20 15:25:28;;;;;;;5.30;1.25;;;;;;;17.92;nan;100977.19;10071420;29;20902;-73
2022/06/20 15:30:35;;;;;;;9.35;1.20;;;;;;;18.15;nan;101067.94;10078883;29;20055;-72
2022/06/20 15:36:02;;;;;;;6.75;1.20;;;;;;;17.98;nan;101003.63;10079070;29;20136;-69
2022/06/20 15:41:11;;;;;;;3.63;1.20;;;;;;;18.26;nan;101104.06;10079739;29;20079;-71
2022/06/20 15:46:20;;;;;;;;;;;;;;;18.22;nan;101092.59;10080660;29;20077;-74
2022/06/20 15:51:37;;;;;;;8.57;1.60;;;;;;;17.65;nan;100865.31;10075342;29;19953;-77
2022/06/20 15:56:50;;;;;;;4.85;1.35;;;;;;;17.23;nan;100695.50;10080463;29;20156;-74
2022/06/20 16:01:54;;;;;;;8.23;1.50;;;;;;;16.94;nan;100585.66;10079883;29;20037;-74
2022/06/20 16:07:21;;;;;;;4.47;1.40;;;;;;;16.47;nan;100389.72;10079501;29;20077;-74
2022/06/20 16:12:25;;;;;;;2.95;1.33;;;;;;;16.18;nan;100282.69;10074637;29;20049;-73
2022/06/20 16:17:42;;;;;;;6.55;1.58;;;;;;;16.29;nan;100323.88;10073307;29;20137;-75
2022/06/20 16:22:44;;;;;;;6.68;1.52;;;;;;;17.11;nan;100649.81;10077301;29;20057;-74
2022/06/20 16:27:59;;;;;;;4.95;1.40;;;;;;;17.69;nan;100896.19;10092988;29;20069;-74
2022/06/20 16:33:20;;;;;;;5.07;1.52;;;;;;;18.10;nan;101064.44;10073347;29;20037;-75
2022/06/20 16:38:24;;;;;;;4.40;1.40;;;;;;;18.11;nan;101065.31;10075795;29;20068;-75
2022/06/20 16:43:39;;;;;;;6.72;1.60;;;;;;;18.17;nan;101097.94;10072456;29;20478;-74
2022/06/20 16:48:52;;;;;;;5.15;1.40;;;;;;;18.34;nan;101166.69;10073283;29;20057;-74
2022/06/20 16:54:21;;;;;;;7.35;1.63;;;;;;;18.43;nan;101209.94;10075394;29;20045;-75
2022/06/20 16:59:28;;;;;;;5.80;1.40;;;;;;;18.90;nan;101403.19;10078933;29;20037;-75
2022/06/20 17:05:00;;;;;;;9.45;1.70;;;;;;;18.94;nan;101419.09;10076086;29;20056;-76
2022/06/20 17:10:14;;;;;;;9.23;1.88;;;;;;;18.22;nan;101126.19;10075064;29;20056;-78
2022/06/20 17:15:46;;;;;;;7.28;1.92;;;;;;;17.62;nan;100874.16;10066292;29;20611;-73
2022/06/20 17:20:55;;;;;;;6.50;1.85;;;;;;;17.23;nan;100714.03;10080260;29;20041;-73
2022/06/20 17:26:19;;;;;;;11.32;2.10;;;;;;;17.04;nan;100639.28;10091177;29;20087;-74
2022/06/20 17:31:50;;;;;;;7.75;1.92;;;;;;;16.77;nan;100541.75;10084799;29;20071;-73
2022/06/20 17:37:28;;;;;;;8.35;2.28;;;;;;;16.54;nan;100435.41;10068252;29;20053;-71
2022/06/20 17:42:35;;;;;;;8.95;2.28;;;;;;;16.42;nan;100391.53;10084760;29;20418;-71
2022/06/20 17:48:26;;;;;;;5.75;1.77;;;;;;;16.38;nan;100374.84;10083879;29;20045;-74
2022/06/20 17:53:37;;;;;;;10.13;2.20;;;;;;;16.40;nan;100390.69;10007883;29;20076;-72
2022/06/20 17:58:57;;;;;;;6.28;2.05;;;;;;;16.34;nan;100367.00;10086716;29;20634;-73
2022/06/20 18:04:08;;;;;;;4.90;2.00;;;;;;;16.28;nan;100344.16;10082651;29;20084;-72
2022/06/20 18:09:16;;;;;;;7.97;2.20;;;;;;;16.21;nan;100326.63;10077569;29;20828;-71
2022/06/20 18:14:30;;;;;;;8.75;1.95;;;;;;;16.01;nan;100239.78;10069501;29;20053;-69
2022/06/20 18:19:38;;;;;;;7.97;1.90;;;;;;;15.90;nan;100193.28;10083231;29;20080;-72
2022/06/20 18:24:57;;;;;;;6.78;1.70;;;;;;;15.79;nan;100155.56;10092147;29;20045;-70
2022/06/20 18:30:01;;;;;;;6.83;1.73;;;;;;;15.74;nan;100137.13;10082081;29;20454;-69
2022/06/20 18:35:06;;;;;;;7.40;1.70;;;;;;;15.58;nan;100069.63;10087441;29;20051;-70
2022/06/20 18:40:19;;;;;;;10.18;1.75;;;;;;;15.40;nan;100001.34;10083353;29;20525;-69
2022/06/20 18:45:32;;;;;;;6.73;1.67;;;;;;;15.26;nan;99946.16;10079538;29;20579;-69
2022/06/20 18:50:51;;;;;;;9.02;1.42;;;;;;;15.22;nan;99936.56;10079411;29;20040;-70
2022/06/20 18:56:19;;;;;;;15.05;1.92;;;;;;;15.16;nan;99913.78;10074870;29;20480;-70
2022/06/20 19:01:36;;;;;;;9.77;1.60;;;;;;;15.09;nan;99880.53;10076587;29;20061;-69
2022/06/20 19:07:06;;;;;;;6.05;1.63;;;;;;;15.09;nan;99893.69;10074417;29;20069;-70
2022/06/20 19:12:28;;;;;;;9.77;2.33;;;;;;;15.07;nan;99879.66;10079897;29;20509;-70
2022/06/20 19:18:00;;;;;;;8.07;1.15;;;;;;;15.05;nan;99873.53;10079969;29;20052;-69
2022/06/20 19:23:23;;;;;;;9.07;1.40;;;;;;;14.93;nan;99832.44;10085857;29;20455;-70
2022/06/20 19:28:34;;;;;;;11.60;1.58;;;;;;;14.79;nan;99778.19;10081483;29;20053;-69
2022/06/20 19:33:39;;;;;;;7.78;1.83;;;;;;;14.75;nan;99759.81;10081599;29;20540;-69
2022/06/20 19:38:58;;;;;;;7.60;1.50;;;;;;;14.65;nan;99733.63;10077843;29;20084;-70
2022/06/20 19:44:39;;;;;;;6.70;1.50;;;;;;;14.58;nan;99704.72;10076362;29;20045;-70
2022/06/20 19:49:49;;;;;;;8.77;1.67;;;;;;;14.55;nan;99700.38;10072183;29;20045;-69
2022/06/20 19:54:56;;;;;;;8.93;1.90;;;;;;;14.55;nan;99691.63;10073514;29;20052;-70
2022/06/20 19:59:57;;;;;;;13.23;1.90;;;;;;;14.46;nan;99667.16;10080197;29;20045;-71
2022/06/20 20:05:11;;;;;;;9.45;1.55;;;;;;;14.30;nan;99605.97;10055044;29;20053;-68
2022/06/20 20:10:24;;;;;;;8.00;1.77;;;;;;;14.20;nan;99572.81;10072387;29;21673;-70
2022/06/20 20:15:35;;;;;;;6.45;1.30;;;;;;;14.15;nan;99556.22;10061776;29;20096;-70
2022/06/20 20:21:06;;;;;;;8.45;2.15;;;;;;;14.03;nan;99509.06;10057290;29;20145;-70
2022/06/20 20:26:17;;;;;;;8.45;1.48;;;;;;;13.96;nan;99484.59;10064552;29;20041;-70
2022/06/20 20:31:30;;;;;;;12.93;1.83;;;;;;;13.86;nan;99454.97;10059871;29;20060;-70
2022/06/20 20:37:02;;;;;;;6.38;1.55;;;;;;;13.73;nan;99406.94;10072215;29;20049;-69
2022/06/20 20:42:16;;;;;;;8.40;1.63;;;;;;;13.63;nan;99376.47;10054642;29;20412;-69
2022/06/20 20:47:28;;;;;;;8.75;1.67;;;;;;;13.48;nan;99314.50;10071358;29;20107;-70
2022/06/20 20:52:39;;;;;;;9.60;2.00;;;;;;;13.36;nan;99265.63;10065895;29;20153;-68
2022/06/20 20:57:47;;;;;;;7.60;1.65;;;;;;;13.30;nan;99246.41;10098428;29;20053;-69
2022/06/20 21:03:01;;;;;;;11.35;1.90;;;;;;;13.17;nan;99201.13;10083868;29;20053;-70
2022/06/20 21:08:19;;;;;;;11.80;1.63;;;;;;;13.08;nan;99154.84;10072186;29;20049;-70
2022/06/20 21:13:25;;;;;;;10.13;1.98;;;;;;;12.96;nan;99123.56;10085107;29;20060;-69
2022/06/20 21:18:36;;;;;;;11.77;2.35;;;;;;;12.83;nan;99078.25;10083956;29;20053;-70
2022/06/20 21:23:47;;;;;;;9.68;1.85;;;;;;;12.76;nan;99051.25;10079714;29;20766;-69
2022/06/20 21:28:51;;;;;;;5.85;1.30;;;;;;;12.62;nan;98995.50;10090311;29;20502;-70
2022/06/20 21:33:55;;;;;;;8.95;1.65;;;;;;;12.53;nan;98973.78;10082684;29;20053;-68
2022/06/20 21:38:59;;;;;;;9.70;1.45;;;;;;;12.49;nan;98956.38;10083323;29;20589;-68
2022/06/20 21:44:05;;;;;;;11.13;2.55;;;;;;;12.43;nan;98942.50;10082910;29;20444;-70
2022/06/20 21:49:09;;;;;;;9.73;1.88;;;;;;;12.30;nan;98894.66;10077207;29;20053;-69
2022/06/20 21:54:16;;;;;;;10.30;1.90;;;;;;;12.29;nan;98887.66;10085823;29;20052;-70
2022/06/20 21:59:41;;;;;;;9.35;1.30;;;;;;;12.18;nan;98849.38;10081518;29;20053;-70
2022/06/20 22:05:11;;;;;;;11.48;2.22;;;;;;;12.08;nan;98812.88;10078006;29;20115;-68
2022/06/20 22:10:25;;;;;;;9.75;1.45;;;;;;;12.08;nan;98812.88;10078578;29;20614;-68
2022/06/20 22:15:36;;;;;;;9.13;1.50;;;;;;;11.81;nan;98724.25;10076555;29;20290;-70
2022/06/20 22:20:40;;;;;;;12.15;2.10;;;;;;;11.66;nan;98664.22;10081042;29;20064;-70
2022/06/20 22:25:45;;;;;;;12.95;2.20;;;;;;;11.59;nan;98636.41;10082485;29;20059;-70
2022/06/20 22:30:48;;;;;;;12.40;2.38;;;;;;;11.49;nan;98604.31;10082029;29;20573;-70
2022/06/20 22:35:53;;;;;;;13.30;2.50;;;;;;;11.35;nan;98552.22;10075413;29;20041;-70
2022/06/20 22:40:58;;;;;;;8.02;1.63;;;;;;;11.22;nan;98504.44;10080727;29;20136;-70
2022/06/20 22:46:06;;;;;;;9.23;1.50;;;;;;;11.16;nan;98477.56;10081152;29;20057;-68
2022/06/20 22:51:12;;;;;;;7.80;1.95;;;;;;;11.01;nan;98429.84;10081762;29;20068;-71
2022/06/20 22:56:24;;;;;;;15.57;2.13;;;;;;;10.88;nan;98376.03;10092056;29;20123;-69
2022/06/20 23:01:36;;;;;;;10.40;1.75;;;;;;;10.88;nan;98376.03;10075529;29;20041;-70
2022/06/20 23:06:38;;;;;;;11.20;2.05;;;;;;;10.70;nan;98320.56;10079899;29;20053;-70
2022/06/20 23:11:40;;;;;;;13.25;2.33;;;;;;;10.67;nan;98312.78;10074933;29;20045;-70
2022/06/20 23:22:15;;;;;;;10.23;1.98;;;;;;;10.54;nan;98266.88;10068838;29;20053;-71
2022/06/20 23:27:18;;;;;;;8.82;1.90;;;;;;;10.50;nan;98254.75;10087009;29;20580;-70
2022/06/20 23:32:23;;;;;;;9.45;2.20;;;;;;;10.38;nan;98214.91;10079029;29;20045;-70
2022/06/20 23:37:25;;;;;;;7.80;1.60;;;;;;;10.35;nan;98208.88;10073780;29;20056;-68
2022/06/20 23:42:27;;;;;;;8.27;1.83;;;;;;;10.27;nan;98175.03;10079232;29;20093;-70
2022/06/20 23:47:36;;;;;;;9.15;2.75;;;;;;;10.16;nan;98138.66;10079941;29;20048;-69
2022/06/20 23:52:37;;;;;;;12.63;1.75;;;;;;;10.11;nan;98121.38;10082334;29;20045;-70
2022/06/20 23:57:43;;;;;;;10.43;2.42;;;;;;;10.04;nan;98098.00;10087003;29;20049;-69
